Time;durP1;ratioP1;P1;durP2;ratioP2;P2;SDS_P1;SDS_P2;PMS_P1;PMS_P2;Temp;Humidity;BMP_temperature;BMP_pressure;BME280_temperature;BME280_humidity;BME280_pressure;Samples;Min_cycle;Max_cycle;Signal;HPM_P1;HPM_P2
2022/05/01 00:01:59;;;;;;;29.25;25.02;;;;;;;12.48;100.00;96694.94;5123254;27;20066;-48
2022/05/01 00:04:28;;;;;;;32.15;26.08;;;;;;;12.41;100.00;96691.22;5126546;27;20082;-47
2022/05/01 00:06:58;;;;;;;33.20;25.38;;;;;;;12.57;100.00;96692.22;5124353;27;20078;-49
2022/05/01 00:09:26;;;;;;;32.20;25.33;;;;;;;12.58;100.00;96688.59;5123228;27;20051;-43
2022/05/01 00:11:54;;;;;;;31.65;25.45;;;;;;;12.16;100.00;96690.97;5123203;27;20489;-46
2022/05/01 00:14:23;;;;;;;33.63;25.55;;;;;;;12.48;100.00;96682.53;5124604;27;20822;-50
2022/05/01 00:16:51;;;;;;;30.48;25.33;;;;;;;12.52;100.00;96685.72;5125414;27;20071;-49
2022/05/01 00:19:19;;;;;;;29.98;24.85;;;;;;;12.38;100.00;96684.44;5123712;27;20953;-52
2022/05/01 00:22:09;;;;;;;33.65;24.77;;;;;;;12.52;100.00;96683.91;5125773;27;20067;-49
2022/05/01 00:24:37;;;;;;;28.95;23.55;;;;;;;12.52;100.00;96688.34;5127012;27;20059;-44
2022/05/01 00:27:05;;;;;;;31.25;25.40;;;;;;;12.18;100.00;96688.19;5105253;27;20502;-44
2022/05/01 00:29:34;;;;;;;29.42;25.15;;;;;;;12.31;100.00;96686.00;5108825;27;20470;-53
2022/05/01 00:32:04;;;;;;;29.35;24.67;;;;;;;12.43;100.00;96679.53;5120589;27;20090;-46
2022/05/01 00:37:31;;;;;;;33.70;27.13;;;;;;;12.33;100.00;96690.16;5031530;28;20780;-43
2022/05/01 00:40:00;;;;;;;35.03;26.48;;;;;;;12.51;100.00;96684.06;5085285;28;20501;-50
2022/05/01 00:42:28;;;;;;;33.28;26.67;;;;;;;12.21;100.00;96682.59;5105119;28;20055;-47
2022/05/01 00:44:56;;;;;;;34.72;27.98;;;;;;;12.40;100.00;96682.47;5104299;28;20067;-45
2022/05/01 00:47:25;;;;;;;35.15;27.33;;;;;;;12.36;100.00;96683.75;5103343;28;20400;-49
2022/05/01 00:49:53;;;;;;;35.53;27.20;;;;;;;12.08;100.00;96685.63;5102429;28;20071;-53
2022/05/01 00:52:23;;;;;;;33.58;26.20;;;;;;;11.91;100.00;96695.16;5091268;28;20617;-53
2022/05/01 00:54:52;;;;;;;34.10;26.75;;;;;;;11.80;100.00;96695.31;5105527;28;20524;-46
2022/05/01 00:57:21;;;;;;;34.55;27.27;;;;;;;12.08;100.00;96690.91;5106635;27;20086;-44
2022/05/01 00:59:51;;;;;;;36.78;28.95;;;;;;;11.67;100.00;96689.56;5122602;27;20063;-48
2022/05/01 01:02:19;;;;;;;35.75;27.35;;;;;;;11.95;100.00;96682.50;5119510;27;20544;-44
2022/05/01 01:04:48;;;;;;;36.40;28.25;;;;;;;11.97;100.00;96686.63;5107932;27;20107;-51
2022/05/01 01:07:16;;;;;;;35.88;27.83;;;;;;;11.97;100.00;96691.91;5112716;27;20058;-50
2022/05/01 01:09:44;;;;;;;34.80;26.80;;;;;;;11.67;100.00;96685.09;5105771;27;20071;-53
2022/05/01 01:15:09;;;;;;;34.42;25.92;;;;;;;11.93;100.00;96681.78;5124518;27;20512;-44
2022/05/01 01:17:40;;;;;;;34.83;27.25;;;;;;;11.90;100.00;96677.63;5122229;27;20051;-44
2022/05/01 01:20:12;;;;;;;35.90;28.42;;;;;;;11.79;100.00;96681.25;5118009;27;20098;-47
2022/05/01 01:22:43;;;;;;;36.90;27.65;;;;;;;11.87;100.00;96688.50;5106501;27;20528;-45
2022/05/01 01:25:11;;;;;;;;;;;;;;;11.83;100.00;96687.09;5101753;28;20067;-52
2022/05/01 01:27:40;;;;;;;35.80;26.48;;;;;;;11.84;100.00;96680.88;5097872;28;20215;-51
2022/05/01 01:32:55;;;;;;;36.05;27.13;;;;;;;12.00;100.00;96677.56;5096333;28;20067;-49
2022/05/01 01:35:24;;;;;;;35.50;27.50;;;;;;;11.74;100.00;96678.25;5103350;28;20066;-53
2022/05/01 01:37:55;;;;;;;37.50;27.10;;;;;;;11.80;100.00;96680.31;5103166;28;20064;-49
2022/05/01 01:40:24;;;;;;;36.20;27.65;;;;;;;11.86;100.00;96678.91;5103538;28;20063;-48
2022/05/01 01:42:55;;;;;;;34.65;27.02;;;;;;;11.96;100.00;96679.69;5099233;28;20063;-47
2022/05/01 01:45:25;;;;;;;37.03;27.85;;;;;;;12.06;100.00;96679.63;5100504;27;20066;-51
2022/05/01 01:47:53;;;;;;;35.70;27.58;;;;;;;12.23;100.00;96675.34;5125814;27;20071;-50
2022/05/01 01:50:21;;;;;;;36.13;27.05;;;;;;;12.28;100.00;96673.91;5120340;27;20074;-49
2022/05/01 01:52:50;;;;;;;37.20;27.75;;;;;;;12.28;100.00;96681.00;5108957;27;20040;-47
2022/05/01 01:55:20;;;;;;;35.72;27.15;;;;;;;12.27;100.00;96680.19;5103062;28;20066;-46
2022/05/01 01:57:48;;;;;;;33.42;26.27;;;;;;;12.17;100.00;96676.78;5102639;28;20466;-51
2022/05/01 02:00:16;;;;;;;34.17;26.63;;;;;;;12.21;100.00;96672.84;5093879;28;20090;-50
2022/05/01 02:02:44;;;;;;;34.03;27.00;;;;;;;12.13;100.00;96677.22;5101219;28;20074;-51
2022/05/01 02:05:13;;;;;;;35.42;27.08;;;;;;;12.38;100.00;96673.84;5098813;28;20059;-51
2022/05/01 02:07:42;;;;;;;33.55;25.60;;;;;;;12.43;100.00;96673.41;5117372;27;20062;-48
2022/05/01 02:10:10;;;;;;;34.85;27.02;;;;;;;12.45;100.00;96668.78;5112860;27;20067;-47
2022/05/01 02:12:40;;;;;;;33.45;25.48;;;;;;;12.45;100.00;96669.63;5102656;28;20555;-44
2022/05/01 02:15:09;;;;;;;35.03;26.25;;;;;;;12.47;100.00;96670.31;5102815;27;20521;-49
2022/05/01 02:17:39;;;;;;;34.05;26.08;;;;;;;12.24;100.00;96672.56;5125887;27;21022;-46
2022/05/01 02:20:08;;;;;;;33.72;26.60;;;;;;;12.29;100.00;96669.47;5118804;27;20559;-52
2022/05/01 02:22:38;;;;;;;33.70;26.20;;;;;;;12.42;100.00;96675.22;5108863;27;20067;-49
2022/05/01 02:25:08;;;;;;;31.48;25.25;;;;;;;12.54;100.00;96663.41;5102831;28;20514;-52
2022/05/01 02:27:37;;;;;;;36.13;26.63;;;;;;;12.55;100.00;96667.72;5101678;28;20063;-50
2022/05/01 02:30:08;;;;;;;32.33;25.85;;;;;;;12.34;100.00;96675.97;5099809;28;20082;-46
2022/05/01 02:32:37;;;;;;;31.63;25.08;;;;;;;12.23;100.00;96665.59;5103262;28;20086;-47
2022/05/01 02:35:06;;;;;;;33.05;25.90;;;;;;;12.02;100.00;96671.16;5119443;27;20183;-47
2022/05/01 02:37:34;;;;;;;33.38;26.70;;;;;;;12.02;100.00;96665.06;5109796;27;20106;-47
2022/05/01 02:40:02;;;;;;;35.45;25.65;;;;;;;12.13;100.00;96659.56;5103900;28;20079;-46
2022/05/01 02:42:31;;;;;;;31.95;26.30;;;;;;;12.13;100.00;96658.72;5107541;27;20066;-50
2022/05/01 02:44:59;;;;;;;32.53;25.42;;;;;;;12.10;100.00;96655.38;5128453;27;20067;-54
2022/05/01 02:47:29;;;;;;;34.30;25.27;;;;;;;12.01;100.00;96653.66;5098536;28;20071;-50
2022/05/01 02:49:57;;;;;;;31.13;24.67;;;;;;;12.14;100.00;96655.09;5115851;27;20079;-52
2022/05/01 02:52:25;;;;;;;34.00;25.67;;;;;;;12.07;100.00;96663.63;5120077;27;20496;-52
2022/05/01 02:54:54;;;;;;;32.92;25.38;;;;;;;12.24;100.00;96656.69;5118734;27;20074;-51
2022/05/01 02:57:23;;;;;;;32.50;24.95;;;;;;;12.08;100.00;96654.72;5120776;27;20086;-48
2022/05/01 02:59:51;;;;;;;32.50;24.48;;;;;;;12.06;100.00;96656.66;5120113;27;20093;-49
2022/05/01 03:02:20;;;;;;;31.23;24.38;;;;;;;11.83;100.00;96647.44;5123253;27;20676;-50
2022/05/01 03:04:50;;;;;;;30.95;24.45;;;;;;;11.88;100.00;96650.53;5122363;27;20534;-52
2022/05/01 03:07:18;;;;;;;30.45;24.52;;;;;;;11.86;100.00;96648.03;5121964;27;20163;-52
2022/05/01 03:09:46;;;;;;;32.38;23.95;;;;;;;11.77;100.00;96648.06;5116194;27;20067;-47
2022/05/01 03:12:18;;;;;;;31.65;23.85;;;;;;;11.73;100.00;96644.03;5114192;27;20097;-46
2022/05/01 03:14:46;;;;;;;32.17;24.77;;;;;;;11.74;100.00;96651.81;5122012;27;20709;-52
2022/05/01 03:17:14;;;;;;;33.33;24.98;;;;;;;11.88;100.00;96647.91;5118597;27;20510;-46
2022/05/01 03:22:30;;;;;;;31.75;24.33;;;;;;;11.95;100.00;96654.25;5118338;27;20074;-50
2022/05/01 03:24:59;;;;;;;32.20;24.73;;;;;;;11.91;100.00;96644.97;5122493;27;20723;-49
2022/05/01 03:27:27;;;;;;;32.58;24.02;;;;;;;11.85;100.00;96650.81;5123128;27;20062;-49
2022/05/01 03:32:38;;;;;;;32.97;24.38;;;;;;;11.84;100.00;96644.72;5126751;27;20609;-55
2022/05/01 03:35:07;;;;;;;31.30;24.35;;;;;;;11.81;100.00;96644.16;5129296;27;20074;-53
2022/05/01 03:37:36;;;;;;;31.20;24.42;;;;;;;11.73;100.00;96633.47;5129974;27;20517;-50
2022/05/01 03:40:06;;;;;;;32.33;24.42;;;;;;;11.80;100.00;96642.47;5125697;27;20067;-50
2022/05/01 03:42:34;;;;;;;33.92;25.10;;;;;;;11.86;100.00;96640.09;5128826;27;20067;-47
2022/05/01 03:45:02;;;;;;;34.38;24.70;;;;;;;11.77;100.00;96648.91;5130779;27;20083;-51
2022/05/01 03:47:32;;;;;;;33.38;25.05;;;;;;;11.97;100.00;96646.97;5128636;27;20081;-53
2022/05/01 03:50:01;;;;;;;34.85;25.10;;;;;;;11.73;100.00;96644.88;5129247;27;20069;-54
2022/05/01 03:52:29;;;;;;;35.40;26.30;;;;;;;11.73;100.00;96641.38;5126229;27;20066;-47
2022/05/01 03:54:58;;;;;;;35.00;25.65;;;;;;;11.66;100.00;96643.78;5126091;27;20063;-47
2022/05/01 03:57:27;;;;;;;36.13;25.55;;;;;;;11.67;100.00;96649.94;5124890;27;20070;-50
2022/05/01 03:59:55;;;;;;;34.30;25.30;;;;;;;11.65;100.00;96645.59;5124084;27;20086;-55
2022/05/01 04:02:23;;;;;;;32.55;24.80;;;;;;;11.59;100.00;96653.28;5125417;27;20071;-53
2022/05/01 04:04:52;;;;;;;33.70;26.23;;;;;;;11.60;100.00;96653.16;5122494;27;20066;-46
2022/05/01 04:07:20;;;;;;;32.72;24.73;;;;;;;11.41;100.00;96654.03;5125088;27;20430;-46
2022/05/01 04:09:48;;;;;;;34.17;25.30;;;;;;;11.35;100.00;96644.06;5126289;27;20074;-50
2022/05/01 04:12:21;;;;;;;33.97;24.85;;;;;;;11.12;100.00;96648.06;5125861;27;20477;-48
2022/05/01 04:14:50;;;;;;;32.55;25.02;;;;;;;11.41;100.00;96651.41;5125100;27;20698;-51
2022/05/01 04:17:18;;;;;;;33.88;26.00;;;;;;;11.10;100.00;96644.72;5123751;27;20167;-48
2022/05/01 04:19:48;;;;;;;35.05;26.02;;;;;;;11.38;100.00;96649.06;5124753;27;20071;-54
2022/05/01 04:22:17;;;;;;;36.33;26.45;;;;;;;11.44;100.00;96646.81;5122089;27;20093;-52
2022/05/01 04:24:51;;;;;;;36.15;26.73;;;;;;;11.40;100.00;96649.75;5126887;27;20532;-53
2022/05/01 04:27:22;;;;;;;37.05;27.38;;;;;;;11.52;100.00;96653.03;5124663;27;20093;-52
2022/05/01 04:29:50;;;;;;;39.15;27.75;;;;;;;11.41;100.00;96655.84;5126119;27;20078;-54
2022/05/01 04:32:21;;;;;;;38.03;27.98;;;;;;;11.48;100.00;96662.22;5126759;27;20110;-52
2022/05/01 04:34:49;;;;;;;38.50;28.02;;;;;;;11.60;100.00;96657.59;5125331;27;20071;-48
2022/05/01 04:37:17;;;;;;;43.08;27.83;;;;;;;11.75;100.00;96661.41;5126170;27;20598;-50
2022/05/01 04:39:45;;;;;;;37.33;28.00;;;;;;;11.87;100.00;96654.13;5126781;27;20051;-53
2022/05/01 04:42:15;;;;;;;39.35;28.33;;;;;;;11.85;100.00;96661.41;5127143;27;20081;-51
2022/05/01 04:44:45;;;;;;;38.28;28.10;;;;;;;11.68;100.00;96662.97;5128326;27;20081;-52
2022/05/01 04:47:13;;;;;;;37.75;28.08;;;;;;;11.59;100.00;96667.31;5127626;27;20271;-52
2022/05/01 04:49:41;;;;;;;40.72;28.42;;;;;;;11.68;100.00;96664.78;5124675;27;20051;-46
2022/05/01 04:52:10;;;;;;;37.55;27.88;;;;;;;11.75;100.00;96665.88;5125965;27;20137;-50
2022/05/01 04:54:38;;;;;;;38.25;28.67;;;;;;;11.97;100.00;96662.84;5126714;27;20066;-52
2022/05/01 04:57:08;;;;;;;38.58;27.60;;;;;;;11.91;100.00;96666.09;5127034;27;20101;-47
2022/05/01 04:59:37;;;;;;;36.35;27.73;;;;;;;12.14;100.00;96665.66;5122151;27;20513;-51
2022/05/01 05:02:07;;;;;;;36.83;28.33;;;;;;;11.90;100.00;96668.88;5126726;27;20512;-49
2022/05/01 05:04:36;;;;;;;39.05;27.70;;;;;;;12.09;100.00;96663.47;5127675;27;20081;-44
2022/05/01 05:07:04;;;;;;;35.35;26.38;;;;;;;12.01;100.00;96669.53;5125520;27;20062;-46
2022/05/01 05:12:18;;;;;;;37.25;27.08;;;;;;;11.70;100.00;96662.81;5129610;27;20059;-45
2022/05/01 05:14:49;;;;;;;39.67;28.20;;;;;;;11.79;100.00;96670.69;5105411;27;20582;-45
2022/05/01 05:17:18;;;;;;;;;;;;;;;11.96;100.00;96666.47;5123467;27;20066;-47
2022/05/01 05:19:47;;;;;;;39.28;27.42;;;;;;;12.00;100.00;96667.84;5123051;27;21841;-44
2022/05/01 05:22:16;;;;;;;36.90;27.90;;;;;;;12.24;100.00;96671.72;5120193;27;20082;-45
2022/05/01 05:24:45;;;;;;;36.20;27.15;;;;;;;11.95;100.00;96674.56;5123956;27;20074;-45
2022/05/01 05:27:13;;;;;;;39.60;28.60;;;;;;;12.24;100.00;96671.72;5125348;27;20055;-45
2022/05/01 05:29:42;;;;;;;42.30;30.40;;;;;;;12.08;100.00;96673.22;5121268;27;20082;-49
2022/05/01 05:32:10;;;;;;;39.13;29.40;;;;;;;12.02;100.00;96665.88;5119536;27;20055;-46
2022/05/01 05:34:40;;;;;;;40.03;30.45;;;;;;;11.82;100.00;96665.13;5122413;27;20067;-49
2022/05/01 05:37:08;;;;;;;40.70;28.25;;;;;;;11.75;100.00;96673.78;5120015;27;20059;-54
2022/05/01 05:39:36;;;;;;;39.80;28.73;;;;;;;11.80;100.00;96679.44;5122102;27;20460;-53
2022/05/01 05:42:06;;;;;;;44.28;29.25;;;;;;;11.69;100.00;96683.13;5121996;27;20469;-48
2022/05/01 05:44:34;;;;;;;42.88;29.63;;;;;;;11.74;100.00;96677.41;5124588;27;20078;-48
2022/05/01 05:47:03;;;;;;;44.97;30.15;;;;;;;11.75;100.00;96687.00;5122521;27;20066;-45
2022/05/01 05:49:32;;;;;;;42.83;30.52;;;;;;;11.91;100.00;96687.25;5120014;27;20067;-48
2022/05/01 05:52:02;;;;;;;41.20;29.75;;;;;;;11.92;100.00;96683.59;5120059;27;20071;-49
2022/05/01 05:54:30;;;;;;;43.55;27.38;;;;;;;12.06;100.00;96685.75;5121950;27;20079;-47
2022/05/01 05:56:59;;;;;;;42.53;30.52;;;;;;;11.83;100.00;96689.72;5116615;27;20103;-47
2022/05/01 05:59:27;;;;;;;41.78;29.00;;;;;;;11.94;100.00;96684.31;5121190;27;20464;-46
2022/05/01 06:01:56;;;;;;;43.33;31.25;;;;;;;12.28;100.00;96687.13;5123288;27;20451;-49
2022/05/01 06:04:24;;;;;;;41.90;29.75;;;;;;;12.10;100.00;96683.63;5121483;27;20059;-46
2022/05/01 06:06:53;;;;;;;45.03;32.30;;;;;;;12.30;100.00;96689.63;5123468;27;20054;-49
2022/05/01 06:09:22;;;;;;;43.03;30.38;;;;;;;12.38;100.00;96694.19;5123533;27;20114;-48
2022/05/01 06:11:50;;;;;;;45.80;31.33;;;;;;;12.35;100.00;96695.28;5130038;27;20066;-49
2022/05/01 06:14:19;;;;;;;47.42;32.13;;;;;;;12.53;100.00;96697.97;5127531;27;20063;-44
2022/05/01 06:16:47;;;;;;;45.08;30.33;;;;;;;12.26;100.00;96690.94;5122840;27;20071;-50
2022/05/01 06:19:15;;;;;;;48.00;31.95;;;;;;;12.13;100.00;96693.91;5118726;27;20063;-54
2022/05/01 06:21:44;;;;;;;43.25;30.60;;;;;;;11.84;100.00;96700.22;5124835;27;20496;-50
2022/05/01 06:24:12;;;;;;;47.53;32.65;;;;;;;11.94;100.00;96705.44;5123768;27;20067;-46
2022/05/01 06:26:42;;;;;;;49.35;32.70;;;;;;;12.17;100.00;96705.84;5121320;27;20147;-44
2022/05/01 06:29:10;;;;;;;45.55;30.13;;;;;;;12.21;100.00;96704.56;5121448;27;20559;-46
2022/05/01 06:31:39;;;;;;;47.22;32.00;;;;;;;12.29;100.00;96709.13;5125492;27;21003;-45
2022/05/01 06:34:11;;;;;;;49.10;32.20;;;;;;;12.13;100.00;96703.66;5121131;28;20078;-49
2022/05/01 06:36:39;;;;;;;43.58;30.35;;;;;;;12.14;100.00;96707.97;5121518;28;20481;-49
2022/05/01 06:39:09;;;;;;;45.22;32.38;;;;;;;12.16;100.00;96709.50;5120237;27;20082;-47
2022/05/01 06:41:37;;;;;;;44.05;30.10;;;;;;;11.86;100.00;96721.19;5122489;27;20075;-45
2022/05/01 06:44:07;;;;;;;45.75;30.98;;;;;;;11.88;100.00;96720.06;5120990;28;20071;-46
2022/05/01 06:46:35;;;;;;;45.17;30.58;;;;;;;12.00;100.00;96717.22;5120515;28;20074;-43
2022/05/01 06:49:03;;;;;;;45.13;32.33;;;;;;;11.97;100.00;96722.81;5125436;27;20058;-44
2022/05/01 06:51:32;;;;;;;46.80;32.25;;;;;;;11.95;100.00;96720.31;5119168;27;20090;-50
2022/05/01 06:54:02;;;;;;;47.25;31.80;;;;;;;11.92;100.00;96725.06;5110585;28;20597;-52
2022/05/01 06:56:31;;;;;;;45.10;30.52;;;;;;;12.05;100.00;96721.09;5102179;28;20397;-50
2022/05/01 06:58:59;;;;;;;46.65;32.65;;;;;;;11.85;100.00;96722.16;5103093;28;20063;-48
2022/05/01 07:01:28;;;;;;;46.83;31.67;;;;;;;11.94;100.00;96729.22;5102526;28;20059;-50
2022/05/01 07:03:57;;;;;;;43.72;30.88;;;;;;;12.03;100.00;96717.75;5108141;28;20067;-53
2022/05/01 07:06:25;;;;;;;47.90;33.20;;;;;;;12.30;100.00;96714.25;5115605;27;20039;-47
2022/05/01 07:08:54;;;;;;;48.13;31.20;;;;;;;12.08;100.00;96718.16;5107973;28;20071;-45
2022/05/01 07:11:22;;;;;;;45.30;32.40;;;;;;;12.30;100.00;96718.72;5109600;28;20434;-53
2022/05/01 07:13:50;;;;;;;45.50;31.67;;;;;;;12.21;100.00;96709.84;5110504;28;20533;-47
2022/05/01 07:16:20;;;;;;;46.05;31.50;;;;;;;12.37;100.00;96719.78;5120352;27;20055;-49
2022/05/01 07:18:50;;;;;;;47.33;32.83;;;;;;;12.37;100.00;96703.94;5129757;27;20074;-47
2022/05/01 07:21:19;;;;;;;47.20;32.40;;;;;;;12.09;100.00;96719.81;5126270;27;20070;-49
2022/05/01 07:23:47;;;;;;;50.42;32.83;;;;;;;12.17;100.00;96712.97;5130560;27;20100;-49
2022/05/01 07:26:15;;;;;;;46.58;32.03;;;;;;;11.96;100.00;96721.97;5107491;27;20762;-52
2022/05/01 07:28:43;;;;;;;47.22;33.50;;;;;;;12.16;100.00;96717.41;5106168;28;20062;-48
2022/05/01 07:31:12;;;;;;;48.38;32.10;;;;;;;12.06;100.00;96719.28;5103545;28;20087;-50
2022/05/01 07:33:40;;;;;;;46.97;31.30;;;;;;;12.18;100.00;96704.91;5104054;28;20056;-51
2022/05/01 07:36:11;;;;;;;47.13;31.92;;;;;;;12.05;100.00;96715.00;5091435;27;20165;-47
2022/05/01 07:38:39;;;;;;;49.03;32.80;;;;;;;12.27;100.00;96714.56;5089940;28;20094;-54
2022/05/01 07:41:07;;;;;;;47.50;31.20;;;;;;;12.17;100.00;96713.78;5094561;28;20070;-50
2022/05/01 07:43:36;;;;;;;45.60;30.95;;;;;;;12.02;100.00;96715.28;5098851;27;20055;-54
2022/05/01 07:46:04;;;;;;;46.47;31.20;;;;;;;12.25;100.00;96715.69;5093015;28;20083;-54
2022/05/01 07:48:32;;;;;;;47.00;31.38;;;;;;;12.47;100.00;96717.91;5093113;28;20516;-48
2022/05/01 07:51:00;;;;;;;46.45;32.00;;;;;;;12.26;100.00;96714.72;5092341;28;20074;-55
2022/05/01 07:53:30;;;;;;;49.00;33.25;;;;;;;12.27;100.00;96713.72;5092140;28;20462;-46
2022/05/01 07:55:58;;;;;;;43.35;28.27;;;;;;;12.30;100.00;96718.72;5101875;28;20085;-48
2022/05/01 07:58:28;;;;;;;50.30;33.92;;;;;;;12.56;100.00;96721.50;5095452;28;20067;-51
2022/05/01 08:00:59;;;;;;;49.17;34.05;;;;;;;12.66;100.00;96724.03;5096854;28;20491;-51
2022/05/01 08:06:13;;;;;;;48.85;34.30;;;;;;;12.59;100.00;96722.03;5093960;28;20076;-49
2022/05/01 08:08:44;;;;;;;50.00;33.80;;;;;;;12.49;100.00;96721.25;5093713;28;20098;-52
2022/05/01 08:11:13;;;;;;;48.53;33.00;;;;;;;12.52;100.00;96715.63;5095296;27;20072;-50
2022/05/01 08:13:41;;;;;;;48.90;34.38;;;;;;;12.64;100.00;96721.56;5095013;27;20525;-49
2022/05/01 08:16:10;;;;;;;48.30;33.90;;;;;;;12.80;100.00;96721.72;5102792;27;20055;-47
2022/05/01 08:21:24;;;;;;;46.90;32.28;;;;;;;12.87;100.00;96710.50;5091585;27;20119;-51
2022/05/01 08:23:55;;;;;;;46.17;30.90;;;;;;;12.74;100.00;96716.19;5097827;28;20166;-51
2022/05/01 08:26:23;;;;;;;44.75;29.52;;;;;;;12.69;100.00;96713.16;5098441;28;21588;-51
2022/05/01 08:28:53;;;;;;;47.72;32.53;;;;;;;13.04;100.00;96707.00;5110623;27;20155;-49
2022/05/01 08:31:22;;;;;;;47.60;32.05;;;;;;;12.87;100.00;96705.19;5110110;27;20051;-51
2022/05/01 08:33:51;;;;;;;47.05;32.58;;;;;;;13.45;100.00;96713.44;5111322;27;20543;-54
2022/05/01 08:36:20;;;;;;;48.08;31.80;;;;;;;13.19;100.00;96720.53;5109938;27;20090;-53
2022/05/01 08:38:48;;;;;;;45.20;32.45;;;;;;;13.30;100.00;96720.31;5109674;27;20083;-52
2022/05/01 08:41:18;;;;;;;47.95;33.40;;;;;;;13.41;100.00;96719.22;5108403;27;20075;-51
2022/05/01 08:43:46;;;;;;;45.80;33.33;;;;;;;13.23;100.00;96716.56;5108634;27;20158;-49
2022/05/01 08:46:28;;;;;;;45.35;31.17;;;;;;;13.50;100.00;96711.16;5112515;27;20065;-52
2022/05/01 08:49:01;;;;;;;44.33;29.60;;;;;;;13.57;100.00;96714.03;5109218;27;20147;-53
2022/05/01 08:51:32;;;;;;;43.45;29.20;;;;;;;13.46;100.00;96715.13;5112014;27;20071;-49
2022/05/01 08:54:04;;;;;;;47.45;30.77;;;;;;;13.23;100.00;96722.69;5113272;27;20071;-53
2022/05/01 08:56:35;;;;;;;46.00;30.33;;;;;;;13.21;100.00;96710.59;5092112;28;21535;-54
2022/05/01 08:59:05;;;;;;;45.88;30.95;;;;;;;13.15;100.00;96719.19;5109156;27;20077;-53
2022/05/01 09:01:34;;;;;;;;;;;;;;;13.28;100.00;96717.81;5111263;27;20090;-52
2022/05/01 09:04:02;;;;;;;45.20;29.67;;;;;;;13.32;100.00;96715.69;5113110;27;20002;-47
2022/05/01 09:06:30;;;;;;;46.13;30.65;;;;;;;13.14;100.00;96720.97;5111484;27;20071;-51
2022/05/01 09:08:59;;;;;;;45.33;31.33;;;;;;;13.59;100.00;96712.03;5109699;27;20071;-52
2022/05/01 09:14:14;;;;;;;47.13;31.60;;;;;;;13.43;100.00;96704.84;5108857;27;20522;-53
2022/05/01 09:16:43;;;;;;;51.05;33.10;;;;;;;13.69;100.00;96709.25;5109448;27;20071;-47
2022/05/01 09:19:11;;;;;;;45.53;29.42;;;;;;;13.50;100.00;96703.22;5109533;27;20074;-50
2022/05/01 09:21:49;;;;;;;48.53;31.52;;;;;;;13.44;100.00;96705.66;5108177;27;20540;-50
2022/05/01 09:24:27;;;;;;;47.08;31.23;;;;;;;13.07;100.00;96707.53;5111982;27;20130;-52
2022/05/01 09:26:56;;;;;;;45.35;30.35;;;;;;;13.12;100.00;96709.72;5110676;27;20125;-49
2022/05/01 09:29:31;;;;;;;41.80;28.58;;;;;;;13.19;100.00;96708.13;5108234;27;21065;-54
2022/05/01 09:32:03;;;;;;;46.33;31.27;;;;;;;13.18;100.00;96705.59;5111092;27;20062;-46
2022/05/01 09:34:33;;;;;;;43.55;30.15;;;;;;;13.59;100.00;96713.84;5108767;27;20477;-50
2022/05/01 09:37:03;;;;;;;45.90;31.70;;;;;;;13.35;100.00;96712.75;5109974;27;20094;-50
2022/05/01 09:39:32;;;;;;;41.08;29.50;;;;;;;13.18;100.00;96710.91;5108553;27;20090;-48
2022/05/01 09:42:16;;;;;;;46.58;30.65;;;;;;;13.25;100.00;96712.00;5106078;27;20083;-45
2022/05/01 09:45:04;;;;;;;39.78;28.95;;;;;;;13.51;100.00;96709.34;5108149;27;20175;-54
2022/05/01 09:47:35;;;;;;;43.65;29.10;;;;;;;13.21;100.00;96713.25;5111560;27;20548;-48
2022/05/01 09:50:05;;;;;;;39.55;28.52;;;;;;;13.33;100.00;96714.69;5109313;27;20709;-45
2022/05/01 09:52:56;;;;;;;40.33;28.63;;;;;;;13.12;100.00;96712.38;5109579;27;20059;-51
2022/05/01 09:55:24;;;;;;;40.88;28.05;;;;;;;13.29;100.00;96710.69;5112422;27;20078;-51
2022/05/01 09:58:06;;;;;;;39.78;27.60;;;;;;;13.19;100.00;96716.06;5111099;27;20067;-47
2022/05/01 10:00:37;;;;;;;39.45;27.50;;;;;;;13.30;100.00;96715.84;5108306;27;20504;-49
2022/05/01 10:03:23;;;;;;;38.30;27.65;;;;;;;13.43;100.00;96712.78;5112754;27;20633;-53
2022/05/01 10:05:53;;;;;;;39.45;27.95;;;;;;;13.49;100.00;96709.50;5110308;27;20094;-49
2022/05/01 10:08:22;;;;;;;;;;;;;;;13.22;100.00;96713.09;5114950;27;20533;-54
2022/05/01 10:10:54;;;;;;;45.13;27.05;;;;;;;13.01;100.00;96713.44;5109014;27;19974;-46
2022/05/01 10:13:24;;;;;;;44.42;27.80;;;;;;;13.24;100.00;96705.03;5109995;27;20171;-47
2022/05/01 10:16:08;;;;;;;41.72;28.38;;;;;;;13.32;100.00;96704.25;5109544;27;20079;-52
2022/05/01 10:18:37;;;;;;;43.88;29.15;;;;;;;13.41;100.00;96695.38;5107665;27;20109;-51
2022/05/01 10:21:26;;;;;;;41.85;28.58;;;;;;;13.33;100.00;96693.50;5107731;27;20067;-47
2022/05/01 10:23:54;;;;;;;42.47;28.95;;;;;;;13.53;100.00;96687.00;5107624;27;20076;-46
2022/05/01 10:26:27;;;;;;;42.42;28.95;;;;;;;14.00;100.00;96686.56;5109555;27;20545;-56
2022/05/01 10:29:38;;;;;;;41.83;28.38;;;;;;;14.27;100.00;96674.03;5107537;27;20115;-51
2022/05/01 10:32:22;;;;;;;44.17;29.45;;;;;;;14.03;100.00;96680.09;5105763;27;20054;-56
2022/05/01 10:35:45;;;;;;;42.25;28.42;;;;;;;14.26;100.00;96675.03;5106531;27;20071;-47
2022/05/01 10:38:25;;;;;;;39.13;27.90;;;;;;;14.24;100.00;96669.03;5103946;27;20059;-50
2022/05/01 10:40:55;;;;;;;40.53;28.55;;;;;;;14.31;100.00;96669.22;5107479;27;20097;-54
2022/05/01 10:43:29;;;;;;;40.90;28.45;;;;;;;14.94;100.00;96672.16;5109211;28;20074;-52
2022/05/01 10:46:00;;;;;;;36.67;26.95;;;;;;;15.13;100.00;96664.81;5108883;27;20661;-52
2022/05/01 10:48:38;;;;;;;34.88;27.38;;;;;;;16.57;100.00;96659.28;5107943;27;20067;-49
2022/05/01 10:51:44;;;;;;;32.47;24.45;;;;;;;15.79;100.00;96661.00;5111689;27;20099;-46
2022/05/01 10:54:38;;;;;;;31.52;24.95;;;;;;;15.54;100.00;96659.44;5115235;28;20079;-49
2022/05/01 10:57:15;;;;;;;32.92;25.33;;;;;;;15.78;100.00;96664.69;5103499;28;20090;-56
2022/05/01 10:59:46;;;;;;;30.63;25.42;;;;;;;16.05;100.00;96654.59;5102488;28;20106;-47
2022/05/01 11:02:31;;;;;;;32.38;25.38;;;;;;;16.07;100.00;96644.59;5098415;28;20066;-51
2022/05/01 11:05:00;;;;;;;33.25;24.33;;;;;;;16.94;100.00;96645.22;5099628;28;20060;-53
2022/05/01 11:07:30;;;;;;;30.43;23.47;;;;;;;17.06;100.00;96648.25;5100042;28;20066;-49
2022/05/01 11:10:00;;;;;;;30.73;24.75;;;;;;;17.67;100.00;96635.63;5099081;28;21071;-51
2022/05/01 11:12:31;;;;;;;30.98;24.60;;;;;;;17.39;100.00;96643.44;5102435;28;20063;-50
2022/05/01 11:14:59;;;;;;;;;;;;;;;17.64;100.00;96636.00;5099534;28;20526;-49
2022/05/01 11:17:49;;;;;;;32.10;24.45;;;;;;;17.55;100.00;96635.28;5099793;28;19966;-55
2022/05/01 11:20:30;;;;;;;28.50;24.25;;;;;;;16.92;100.00;96641.06;5102233;28;20064;-51
2022/05/01 11:23:01;;;;;;;28.83;22.92;;;;;;;16.61;100.00;96631.28;5098782;28;20486;-49
2022/05/01 11:25:38;;;;;;;27.75;22.65;;;;;;;16.97;100.00;96636.03;5117019;27;20066;-54
2022/05/01 11:28:07;;;;;;;28.50;23.27;;;;;;;17.56;100.00;96634.25;5124673;27;20531;-50
2022/05/01 11:30:37;;;;;;;26.42;21.67;;;;;;;18.42;100.00;96623.81;5124896;27;20062;-51
2022/05/01 11:33:08;;;;;;;28.90;23.02;;;;;;;17.96;100.00;96632.16;5120939;27;20071;-52
2022/05/01 11:36:02;;;;;;;26.58;22.40;;;;;;;19.10;100.00;96624.28;5125915;27;20082;-51
2022/05/01 11:38:32;;;;;;;25.75;22.38;;;;;;;19.82;100.00;96619.56;5103418;28;20481;-50
2022/05/01 11:41:02;;;;;;;23.90;20.73;;;;;;;19.90;100.00;96616.75;5100779;28;20493;-50
2022/05/01 11:43:31;;;;;;;24.48;19.10;;;;;;;20.05;100.00;96614.75;5101691;28;20458;-47
2022/05/01 11:46:01;;;;;;;20.92;18.63;;;;;;;20.46;95.51;96611.16;5098758;28;20078;-50
2022/05/01 11:48:30;;;;;;;24.20;17.98;;;;;;;19.94;100.00;96609.97;5101844;28;20067;-58
2022/05/01 11:50:59;;;;;;;24.33;19.75;;;;;;;19.17;100.00;96613.63;5099468;28;20094;-50
2022/05/01 11:53:29;;;;;;;24.30;21.10;;;;;;;19.10;100.00;96613.59;5102820;28;20067;-47